Time;durP1;ratioP1;P1;durP2;ratioP2;P2;SDS_P1;SDS_P2;PMS_P1;PMS_P2;Temp;Humidity;BMP_temperature;BMP_pressure;BME280_temperature;BME280_humidity;BME280_pressure;Samples;Min_cycle;Max_cycle;Signal;HPM_P1;HPM_P2
2021/06/10 00:02:12;;;;;;;14.30;12.80;;;;;;;;;;5053940;28;20401;-54
2021/06/10 00:04:38;;;;;;;13.90;12.63;;;;;;;;;;5053852;28;20505;-54
2021/06/10 00:07:04;;;;;;;13.20;12.10;;;;;;;;;;5054101;28;20413;-54
2021/06/10 00:09:30;;;;;;;16.27;13.50;;;;;;;;;;5054026;28;20425;-53
2021/06/10 00:11:57;;;;;;;13.40;12.07;;;;;;;;;;5053708;28;20413;-54
2021/06/10 00:14:23;;;;;;;14.23;12.93;;;;;;;;;;5053815;28;20401;-54
2021/06/10 00:16:49;;;;;;;13.73;12.43;;;;;;;;;;5053468;28;20464;-54
2021/06/10 00:19:14;;;;;;;14.93;10.90;;;;;;;;;;5053709;28;20414;-54
2021/06/10 00:21:41;;;;;;;14.97;13.10;;;;;;;;;;5053296;28;20897;-54
2021/06/10 00:24:08;;;;;;;12.50;11.30;;;;;;;;;;5053468;28;20376;-54
2021/06/10 00:26:34;;;;;;;13.83;12.43;;;;;;;;;;5053407;28;20397;-54
2021/06/10 00:29:00;;;;;;;13.97;12.47;;;;;;;;;;5053463;28;20426;-54
2021/06/10 00:31:26;;;;;;;13.60;11.50;;;;;;;;;;5052956;28;20405;-54
2021/06/10 00:33:53;;;;;;;14.20;12.90;;;;;;;;;;5053069;28;20401;-54
2021/06/10 00:36:19;;;;;;;12.70;11.60;;;;;;;;;;5052968;28;20453;-54
2021/06/10 00:38:46;;;;;;;14.40;12.90;;;;;;;;;;5051885;28;20471;-54
2021/06/10 00:41:12;;;;;;;14.90;13.50;;;;;;;;;;5052973;28;20741;-54
2021/06/10 00:43:38;;;;;;;23.03;14.10;;;;;;;;;;5052961;28;20408;-54
2021/06/10 00:46:04;;;;;;;13.30;12.00;;;;;;;;;;5052850;28;20384;-54
2021/06/10 00:48:30;;;;;;;13.53;12.23;;;;;;;;;;5052448;28;20456;-54
2021/06/10 00:50:56;;;;;;;13.53;12.13;;;;;;;;;;5052818;28;20413;-54
2021/06/10 00:53:25;;;;;;;13.40;12.10;;;;;;;;;;5052829;28;20781;-54
2021/06/10 00:55:52;;;;;;;13.80;12.50;;;;;;;;;;5052908;28;20940;-54
2021/06/10 00:58:18;;;;;;;16.53;14.83;;;;;;;;;;5053077;28;20397;-54
2021/06/10 01:00:44;;;;;;;15.60;14.20;;;;;;;;;;5052713;28;20463;-54
2021/06/10 01:03:10;;;;;;;16.40;14.77;;;;;;;;;;5052593;28;20398;-54
2021/06/10 01:05:37;;;;;;;16.03;14.27;;;;;;;;;;5053414;28;20898;-54
2021/06/10 01:08:24;;;;;;;15.07;13.67;;;;;;;;;;5053434;28;20397;-53
2021/06/10 01:11:09;;;;;;;16.77;15.07;;;;;;;;;;5053851;28;20368;-54
2021/06/10 01:13:55;;;;;;;15.73;13.40;;;;;;;;;;5054185;28;20777;-54
2021/06/10 01:16:22;;;;;;;16.13;14.43;;;;;;;;;;5054127;28;20506;-54
2021/06/10 01:18:49;;;;;;;15.93;14.10;;;;;;;;;;5054255;28;20638;-54
2021/06/10 01:21:17;;;;;;;18.53;15.80;;;;;;;;;;5054145;28;20405;-54
2021/06/10 01:24:01;;;;;;;15.10;13.70;;;;;;;;;;5054380;28;20380;-53
2021/06/10 01:26:46;;;;;;;15.90;14.40;;;;;;;;;;5054764;28;20860;-53
2021/06/10 01:29:13;;;;;;;15.40;13.47;;;;;;;;;;5054637;28;20433;-54
2021/06/10 01:31:40;;;;;;;15.60;14.10;;;;;;;;;;5054576;28;20410;-54
2021/06/10 01:34:07;;;;;;;15.20;13.70;;;;;;;;;;5054424;28;20445;-53
2021/06/10 01:36:35;;;;;;;15.30;13.80;;;;;;;;;;5054944;28;20448;-54
2021/06/10 01:39:02;;;;;;;14.67;13.40;;;;;;;;;;5054561;28;20396;-53
2021/06/10 01:41:29;;;;;;;17.53;13.87;;;;;;;;;;5054458;28;20405;-54
2021/06/10 01:43:57;;;;;;;15.90;14.50;;;;;;;;;;5054722;28;20492;-53
2021/06/10 01:46:23;;;;;;;16.10;14.47;;;;;;;;;;5054123;28;20413;-54
2021/06/10 01:48:49;;;;;;;15.70;14.30;;;;;;;;;;5054094;28;20445;-54
2021/06/10 01:51:17;;;;;;;15.10;13.53;;;;;;;;;;5053867;28;20867;-54
2021/06/10 01:53:44;;;;;;;15.20;13.80;;;;;;;;;;5053858;28;20413;-53
2021/06/10 01:56:11;;;;;;;17.17;13.80;;;;;;;;;;5054013;28;20453;-54
2021/06/10 01:58:37;;;;;;;16.43;14.83;;;;;;;;;;5053785;28;20421;-54
2021/06/10 02:01:04;;;;;;;16.20;14.60;;;;;;;;;;5053091;28;20422;-54
2021/06/10 02:03:30;;;;;;;19.30;15.70;;;;;;;;;;5053816;28;20415;-54
2021/06/10 02:05:57;;;;;;;15.47;13.83;;;;;;;;;;5053874;28;20384;-54
2021/06/10 02:08:23;;;;;;;17.57;15.87;;;;;;;;;;5053423;28;20455;-54
2021/06/10 02:10:50;;;;;;;18.50;14.37;;;;;;;;;;5052114;28;20391;-54
2021/06/10 02:13:17;;;;;;;15.37;13.77;;;;;;;;;;5053656;28;20410;-53
2021/06/10 02:15:44;;;;;;;15.40;13.77;;;;;;;;;;5053691;28;20942;-54
2021/06/10 02:18:10;;;;;;;16.80;14.23;;;;;;;;;;5053578;28;20418;-54
2021/06/10 02:20:36;;;;;;;15.50;13.80;;;;;;;;;;5053811;28;20909;-54
2021/06/10 02:23:02;;;;;;;19.67;17.67;;;;;;;;;;5053233;28;20401;-53
2021/06/10 02:25:28;;;;;;;18.40;16.50;;;;;;;;;;5054113;28;20376;-54
2021/06/10 02:27:54;;;;;;;19.03;17.20;;;;;;;;;;5053658;28;20375;-54
2021/06/10 02:30:20;;;;;;;18.53;16.63;;;;;;;;;;5053877;28;20441;-54
2021/06/10 02:32:46;;;;;;;18.07;16.37;;;;;;;;;;5053800;28;20372;-54
2021/06/10 02:35:13;;;;;;;19.20;15.97;;;;;;;;;;5053386;28;20401;-53
2021/06/10 02:37:40;;;;;;;18.03;16.20;;;;;;;;;;5054196;28;20460;-53
2021/06/10 02:40:09;;;;;;;18.43;16.47;;;;;;;;;;5053920;28;20425;-54
2021/06/10 02:42:36;;;;;;;19.73;17.70;;;;;;;;;;5051559;28;20437;-52
2021/06/10 02:45:02;;;;;;;19.47;17.60;;;;;;;;;;5050546;28;20436;-52
2021/06/10 02:47:29;;;;;;;23.33;18.53;;;;;;;;;;5050740;28;20387;-54
2021/06/10 02:49:55;;;;;;;20.27;17.83;;;;;;;;;;5050499;28;20421;-53
2021/06/10 02:52:21;;;;;;;19.60;17.70;;;;;;;;;;5050375;28;20437;-53
2021/06/10 02:54:48;;;;;;;19.73;17.77;;;;;;;;;;5050469;28;20502;-51
2021/06/10 02:57:15;;;;;;;20.33;17.17;;;;;;;;;;5050496;28;20484;-53
2021/06/10 02:59:42;;;;;;;19.90;17.93;;;;;;;;;;5050307;28;20505;-51
2021/06/10 03:02:09;;;;;;;17.80;16.10;;;;;;;;;;5050401;28;20387;-52
2021/06/10 03:04:35;;;;;;;17.90;16.23;;;;;;;;;;5048994;28;20479;-52
2021/06/10 03:07:01;;;;;;;18.93;16.90;;;;;;;;;;5050511;28;20823;-51
2021/06/10 03:09:28;;;;;;;16.67;15.00;;;;;;;;;;5050316;28;20433;-51
2021/06/10 03:11:54;;;;;;;16.47;14.93;;;;;;;;;;5052646;28;20416;-52
2021/06/10 03:14:20;;;;;;;18.10;16.30;;;;;;;;;;5054284;28;20405;-52
2021/06/10 03:16:47;;;;;;;17.70;15.60;;;;;;;;;;5054405;28;20595;-53
2021/06/10 03:19:17;;;;;;;17.33;15.73;;;;;;;;;;5054253;28;20414;-52
2021/06/10 03:21:44;;;;;;;21.43;16.80;;;;;;;;;;5054247;28;20401;-51
2021/06/10 03:24:10;;;;;;;18.13;16.23;;;;;;;;;;5054194;28;20436;-52
2021/06/10 03:26:36;;;;;;;18.53;16.63;;;;;;;;;;5054303;28;20403;-51
2021/06/10 03:29:03;;;;;;;20.60;18.60;;;;;;;;;;5054101;28;20429;-51
2021/06/10 03:31:29;;;;;;;22.50;20.10;;;;;;;;;;5053939;28;20448;-52
2021/06/10 03:33:55;;;;;;;25.43;21.67;;;;;;;;;;5054296;28;20825;-51
2021/06/10 03:36:22;;;;;;;25.60;22.83;;;;;;;;;;5053968;28;20477;-51
2021/06/10 03:38:48;;;;;;;25.97;23.17;;;;;;;;;;5054057;28;20402;-52
2021/06/10 03:41:15;;;;;;;31.97;26.20;;;;;;;;;;5053740;28;20404;-51
2021/06/10 03:43:42;;;;;;;34.37;25.00;;;;;;;;;;5053890;28;20433;-52
2021/06/10 03:46:08;;;;;;;29.97;24.30;;;;;;;;;;5053965;28;20436;-51
2021/06/10 03:48:38;;;;;;;27.33;24.33;;;;;;;;;;5054032;28;20439;-51
2021/06/10 03:51:09;;;;;;;25.67;22.40;;;;;;;;;;5053933;28;20908;-51
2021/06/10 03:53:35;;;;;;;25.10;22.50;;;;;;;;;;5053844;28;20372;-53
2021/06/10 03:56:01;;;;;;;26.63;22.77;;;;;;;;;;5053855;28;20467;-51
2021/06/10 03:58:27;;;;;;;30.30;24.43;;;;;;;;;;5053834;28;20387;-51
2021/06/10 04:00:53;;;;;;;25.00;22.37;;;;;;;;;;5053740;28;20401;-51
2021/06/10 04:03:19;;;;;;;25.17;22.77;;;;;;;;;;5053591;28;20436;-51
2021/06/10 04:05:45;;;;;;;23.77;21.27;;;;;;;;;;5053606;28;20856;-51
2021/06/10 04:08:11;;;;;;;27.87;23.57;;;;;;;;;;5053575;28;20376;-51
2021/06/10 04:10:37;;;;;;;32.07;24.90;;;;;;;;;;5053377;28;20399;-52
2021/06/10 04:13:03;;;;;;;28.80;22.70;;;;;;;;;;5053175;28;20434;-51
2021/06/10 04:15:29;;;;;;;32.97;24.73;;;;;;;;;;5052341;28;20813;-51
2021/06/10 04:17:55;;;;;;;28.23;25.23;;;;;;;;;;5052309;28;20431;-51
2021/06/10 04:20:21;;;;;;;27.83;24.33;;;;;;;;;;5053068;28;20404;-52
2021/06/10 04:22:47;;;;;;;30.30;25.97;;;;;;;;;;5052039;28;20463;-52
2021/06/10 04:25:13;;;;;;;33.43;27.90;;;;;;;;;;5053188;28;20372;-51
2021/06/10 04:27:39;;;;;;;38.03;28.23;;;;;;;;;;5052921;28;20894;-52
2021/06/10 04:30:06;;;;;;;38.37;27.47;;;;;;;;;;5053020;28;20425;-52
2021/06/10 04:32:32;;;;;;;31.03;27.27;;;;;;;;;;5052711;28;20429;-51
2021/06/10 04:34:58;;;;;;;33.63;27.83;;;;;;;;;;5053021;28;20482;-51
2021/06/10 04:37:24;;;;;;;30.60;27.00;;;;;;;;;;5052723;28;20423;-51
2021/06/10 04:39:49;;;;;;;37.13;28.50;;;;;;;;;;5052871;28;20496;-51
2021/06/10 04:42:16;;;;;;;32.90;28.87;;;;;;;;;;5052364;28;20372;-52
2021/06/10 04:44:42;;;;;;;34.93;28.00;;;;;;;;;;5052853;28;20372;-52
2021/06/10 04:47:08;;;;;;;33.70;26.47;;;;;;;;;;5052714;28;20383;-52
2021/06/10 04:49:36;;;;;;;28.47;25.50;;;;;;;;;;5052700;28;20948;-54
2021/06/10 04:52:02;;;;;;;30.03;25.80;;;;;;;;;;5052309;28;20856;-52
2021/06/10 04:54:28;;;;;;;30.73;27.47;;;;;;;;;;5052536;28;20381;-53
2021/06/10 04:56:54;;;;;;;28.57;25.47;;;;;;;;;;5052402;28;20484;-51
2021/06/10 04:59:21;;;;;;;31.27;27.97;;;;;;;;;;5052515;28;20403;-51
2021/06/10 05:01:47;;;;;;;30.50;27.17;;;;;;;;;;5052248;28;20420;-52
2021/06/10 05:04:13;;;;;;;36.33;26.50;;;;;;;;;;5052405;28;20979;-52
2021/06/10 05:06:39;;;;;;;34.50;27.80;;;;;;;;;;5052164;28;20475;-52
2021/06/10 05:09:05;;;;;;;34.13;28.33;;;;;;;;;;5052263;28;20486;-52
2021/06/10 05:11:31;;;;;;;33.90;29.07;;;;;;;;;;5051924;28;20419;-51
2021/06/10 05:13:57;;;;;;;33.93;29.07;;;;;;;;;;5052213;28;20416;-52
2021/06/10 05:16:25;;;;;;;29.53;26.40;;;;;;;;;;5052114;28;20510;-51
2021/06/10 05:18:51;;;;;;;34.63;29.10;;;;;;;;;;5051885;28;20449;-52
2021/06/10 05:21:17;;;;;;;31.03;27.73;;;;;;;;;;5051865;28;20372;-52
2021/06/10 05:23:43;;;;;;;33.20;27.83;;;;;;;;;;5051887;28;20444;-54
2021/06/10 05:26:09;;;;;;;36.50;30.33;;;;;;;;;;5051983;28;20405;-54
2021/06/10 05:28:35;;;;;;;35.43;31.47;;;;;;;;;;5051905;28;20406;-54
2021/06/10 05:31:02;;;;;;;35.47;31.70;;;;;;;;;;5051910;28;20391;-53
2021/06/10 05:33:28;;;;;;;35.00;30.63;;;;;;;;;;5051441;28;20395;-51
2021/06/10 05:35:54;;;;;;;38.30;29.60;;;;;;;;;;5051713;28;20439;-52
2021/06/10 05:38:20;;;;;;;35.00;30.30;;;;;;;;;;5051609;28;20429;-51
2021/06/10 05:40:46;;;;;;;33.77;29.70;;;;;;;;;;5051694;28;20405;-51
2021/06/10 05:43:12;;;;;;;33.77;29.83;;;;;;;;;;5051316;28;20376;-52
2021/06/10 05:45:38;;;;;;;31.90;28.60;;;;;;;;;;5051627;28;20408;-52
2021/06/10 05:48:05;;;;;;;29.77;26.63;;;;;;;;;;5051396;28;20450;-52
2021/06/10 05:50:31;;;;;;;30.93;26.53;;;;;;;;;;5051496;28;20431;-51
2021/06/10 05:52:57;;;;;;;30.60;24.13;;;;;;;;;;5051100;28;20455;-51
2021/06/10 05:55:23;;;;;;;27.53;24.87;;;;;;;;;;5051519;28;20375;-51
2021/06/10 05:57:49;;;;;;;30.30;26.50;;;;;;;;;;5051340;28;20487;-51
2021/06/10 06:00:16;;;;;;;32.00;28.20;;;;;;;;;;5051392;28;20932;-51
2021/06/10 06:02:42;;;;;;;31.70;28.10;;;;;;;;;;5050940;28;20885;-52
2021/06/10 06:05:08;;;;;;;30.83;27.10;;;;;;;;;;5051392;28;20405;-54
2021/06/10 06:07:35;;;;;;;34.03;28.17;;;;;;;;;;5051323;28;20405;-54
2021/06/10 06:10:02;;;;;;;38.03;32.40;;;;;;;;;;5051144;28;20428;-52
2021/06/10 06:12:29;;;;;;;32.40;27.73;;;;;;;;;;5050981;28;20413;-53
2021/06/10 06:14:55;;;;;;;32.43;28.93;;;;;;;;;;5049826;28;20417;-52
2021/06/10 06:17:21;;;;;;;34.90;29.43;;;;;;;;;;5050920;28;20460;-53
2021/06/10 06:19:47;;;;;;;34.40;28.37;;;;;;;;;;5050885;28;21152;-52
2021/06/10 06:22:13;;;;;;;33.03;28.00;;;;;;;;;;5050782;28;20398;-56
2021/06/10 06:24:39;;;;;;;32.80;27.43;;;;;;;;;;5050850;28;20912;-52
2021/06/10 06:27:05;;;;;;;33.27;28.43;;;;;;;;;;5050944;28;20406;-53
2021/06/10 06:29:31;;;;;;;29.90;25.53;;;;;;;;;;5050720;28;20433;-52
2021/06/10 06:31:58;;;;;;;28.23;25.23;;;;;;;;;;5050651;28;20433;-53
2021/06/10 06:34:25;;;;;;;25.67;22.87;;;;;;;;;;5050768;28;20786;-51
2021/06/10 06:36:51;;;;;;;32.00;22.90;;;;;;;;;;5050824;28;20457;-52
2021/06/10 06:39:17;;;;;;;27.13;22.40;;;;;;;;;;5050617;28;20432;-51
2021/06/10 06:41:43;;;;;;;25.53;20.10;;;;;;;;;;5050543;28;20405;-51
2021/06/10 06:44:09;;;;;;;24.87;19.67;;;;;;;;;;5050550;28;20401;-51
2021/06/10 06:46:36;;;;;;;22.73;19.07;;;;;;;;;;5050246;28;20413;-51
2021/06/10 06:49:02;;;;;;;20.33;18.00;;;;;;;;;;5050648;28;20504;-52
2021/06/10 06:51:28;;;;;;;24.00;21.57;;;;;;;;;;5050583;28;20409;-51
2021/06/10 06:53:54;;;;;;;24.77;20.97;;;;;;;;;;5050316;28;20401;-52
2021/06/10 06:56:21;;;;;;;23.10;19.17;;;;;;;;;;5050505;28;20459;-52
2021/06/10 06:58:47;;;;;;;22.03;19.70;;;;;;;;;;5050477;28;20413;-52
2021/06/10 07:01:13;;;;;;;24.13;17.53;;;;;;;;;;5050533;28;20405;-52
2021/06/10 07:03:39;;;;;;;18.13;14.97;;;;;;;;;;5050441;28;20496;-52
2021/06/10 07:06:05;;;;;;;17.80;15.90;;;;;;;;;;5050422;28;20412;-52
2021/06/10 07:08:31;;;;;;;16.67;14.57;;;;;;;;;;5046577;28;20410;-52
2021/06/10 07:10:58;;;;;;;15.00;13.57;;;;;;;;;;5041361;28;20409;-52
2021/06/10 07:13:24;;;;;;;16.13;12.47;;;;;;;;;;5050055;28;20852;-52
2021/06/10 07:15:51;;;;;;;14.67;12.43;;;;;;;;;;5050093;28;20788;-52
2021/06/10 07:18:17;;;;;;;14.50;12.00;;;;;;;;;;5050166;28;20408;-51
2021/06/10 07:20:43;;;;;;;12.50;10.27;;;;;;;;;;5049346;28;20471;-52
2021/06/10 07:23:09;;;;;;;8.27;6.70;;;;;;;;;;5048767;28;20451;-52
2021/06/10 07:25:35;;;;;;;8.60;6.97;;;;;;;;;;5049811;28;20409;-51
2021/06/10 07:28:01;;;;;;;6.43;5.10;;;;;;;;;;5050303;28;20805;-51
2021/06/10 07:30:27;;;;;;;12.80;6.50;;;;;;;;;;5049999;28;20474;-51
2021/06/10 07:32:53;;;;;;;4.60;4.20;;;;;;;;;;5050128;28;20504;-51
2021/06/10 07:35:21;;;;;;;4.80;3.70;;;;;;;;;;5050086;28;20425;-52
2021/06/10 07:37:53;;;;;;;6.17;3.83;;;;;;;;;;5050081;28;20496;-51
2021/06/10 07:40:23;;;;;;;4.47;4.07;;;;;;;;;;5050099;28;20832;-51
2021/06/10 07:42:49;;;;;;;4.17;3.83;;;;;;;;;;5049946;28;20408;-52
2021/06/10 07:45:15;;;;;;;5.33;4.83;;;;;;;;;;5048920;28;20413;-52
2021/06/10 07:47:41;;;;;;;5.20;4.70;;;;;;;;;;5050298;28;20405;-52
2021/06/10 07:50:08;;;;;;;4.10;3.90;;;;;;;;;;5050329;28;20436;-51
2021/06/10 07:52:34;;;;;;;5.87;5.37;;;;;;;;;;5049907;28;20443;-51
2021/06/10 07:55:00;;;;;;;5.33;4.83;;;;;;;;;;5050275;28;20767;-51
2021/06/10 07:57:26;;;;;;;11.47;4.53;;;;;;;;;;5049938;28;20476;-50
2021/06/10 07:59:52;;;;;;;8.40;4.63;;;;;;;;;;5053704;28;20951;-51
2021/06/10 08:02:18;;;;;;;5.87;4.57;;;;;;;;;;5053360;28;20401;-51
2021/06/10 08:04:44;;;;;;;5.60;5.10;;;;;;;;;;5053724;28;20409;-51
2021/06/10 08:07:11;;;;;;;6.00;4.77;;;;;;;;;;5053497;28;20842;-51
2021/06/10 08:09:37;;;;;;;7.40;4.37;;;;;;;;;;5053475;28;20432;-52
2021/06/10 08:12:03;;;;;;;6.37;4.60;;;;;;;;;;5053169;28;20409;-52
2021/06/10 08:14:29;;;;;;;13.57;5.63;;;;;;;;;;5053403;28;20398;-52
2021/06/10 08:16:55;;;;;;;5.50;4.70;;;;;;;;;;5053262;28;20449;-53
2021/06/10 08:19:21;;;;;;;8.47;4.90;;;;;;;;;;5053314;28;20421;-53
2021/06/10 08:21:48;;;;;;;5.93;5.27;;;;;;;;;;5052952;28;20397;-52
2021/06/10 08:24:15;;;;;;;5.47;4.20;;;;;;;;;;5053123;28;20419;-52
2021/06/10 08:26:43;;;;;;;9.13;4.53;;;;;;;;;;5053067;28;20463;-51
2021/06/10 08:29:09;;;;;;;5.33;4.67;;;;;;;;;;5053220;28;20455;-50
2021/06/10 08:31:35;;;;;;;7.80;4.60;;;;;;;;;;5052765;28;20401;-50
2021/06/10 08:34:01;;;;;;;4.00;3.70;;;;;;;;;;5052828;28;20421;-51
2021/06/10 08:36:27;;;;;;;8.37;6.37;;;;;;;;;;5052802;28;20448;-51
2021/06/10 08:38:52;;;;;;;6.60;5.80;;;;;;;;;;5052880;28;20428;-51
2021/06/10 08:41:19;;;;;;;6.43;3.67;;;;;;;;;;5052759;28;20889;-50
2021/06/10 08:43:45;;;;;;;5.43;4.93;;;;;;;;;;5059222;28;20397;-52
2021/06/10 08:46:12;;;;;;;4.63;4.30;;;;;;;;;;5060728;28;20783;-52
2021/06/10 08:48:39;;;;;;;3.83;3.53;;;;;;;;;;5060543;28;20413;-52
2021/06/10 08:51:06;;;;;;;5.50;4.10;;;;;;;;;;5061210;28;20424;-52
2021/06/10 08:53:32;;;;;;;4.53;4.10;;;;;;;;;;5059573;28;20413;-52
2021/06/10 08:55:58;;;;;;;4.40;4.00;;;;;;;;;;5060408;28;20410;-52
2021/06/10 08:58:24;;;;;;;5.17;4.30;;;;;;;;;;5060072;28;20433;-52
2021/06/10 09:00:51;;;;;;;4.60;4.20;;;;;;;;;;5059239;28;20417;-52
2021/06/10 09:03:24;;;;;;;4.33;4.03;;;;;;;;;;5059472;28;20414;-52
2021/06/10 09:06:00;;;;;;;4.40;3.43;;;;;;;;;;5059813;28;20435;-52
2021/06/10 09:08:26;;;;;;;5.40;3.60;;;;;;;;;;5059418;28;20488;-52
2021/06/10 09:11:02;;;;;;;4.63;4.00;;;;;;;;;;5060318;28;20406;-52
2021/06/10 09:13:36;;;;;;;9.13;3.63;;;;;;;;;;5059644;28;20404;-52
2021/06/10 09:16:15;;;;;;;3.30;3.00;;;;;;;;;;5059485;28;20457;-52
2021/06/10 09:18:51;;;;;;;5.37;3.30;;;;;;;;;;5059255;28;20480;-52
2021/06/10 09:21:27;;;;;;;11.90;3.57;;;;;;;;;;5058077;28;20409;-52
2021/06/10 09:23:54;;;;;;;7.13;3.10;;;;;;;;;;5058463;28;20408;-52
2021/06/10 09:26:20;;;;;;;4.70;3.83;;;;;;;;;;5055697;28;20509;-52
2021/06/10 09:28:50;;;;;;;4.60;2.90;;;;;;;;;;5052665;28;20461;-52
2021/06/10 09:31:29;;;;;;;5.10;3.30;;;;;;;;;;5045462;28;20395;-52
2021/06/10 09:33:55;;;;;;;4.60;3.57;;;;;;;;;;5043395;28;20414;-52
2021/06/10 09:36:24;;;;;;;3.47;3.17;;;;;;;;;;5046403;28;20458;-52
2021/06/10 09:39:09;;;;;;;6.63;3.50;;;;;;;;;;5039931;28;20515;-52
2021/06/10 09:41:35;;;;;;;5.23;3.80;;;;;;;;;;5031999;28;20508;-53
2021/06/10 09:44:01;;;;;;;3.60;3.30;;;;;;;;;;5042056;28;20485;-52
2021/06/10 09:46:27;;;;;;;3.70;2.90;;;;;;;;;;5055104;28;20393;-50
2021/06/10 09:49:03;;;;;;;5.73;4.40;;;;;;;;;;5053112;28;20461;-52
2021/06/10 09:51:29;;;;;;;3.47;3.17;;;;;;;;;;5037469;28;20409;-51
2021/06/10 09:53:55;;;;;;;6.10;3.30;;;;;;;;;;5037416;28;20403;-50
2021/06/10 09:56:21;;;;;;;3.37;3.07;;;;;;;;;;5037159;28;20454;-51
2021/06/10 09:58:54;;;;;;;4.77;3.93;;;;;;;;;;5045968;28;20433;-53
2021/06/10 10:01:21;;;;;;;3.87;3.53;;;;;;;;;;5046792;28;20405;-52
2021/06/10 10:03:49;;;;;;;4.10;3.60;;;;;;;;;;5042776;28;21008;-51
2021/06/10 10:06:31;;;;;;;3.80;2.90;;;;;;;;;;5041342;28;20410;-52
2021/06/10 10:09:01;;;;;;;3.87;3.63;;;;;;;;;;5044378;28;20425;-51
2021/06/10 10:11:29;;;;;;;3.40;3.20;;;;;;;;;;5049236;28;20421;-52
2021/06/10 10:13:56;;;;;;;5.37;3.20;;;;;;;;;;5040324;28;20960;-51
2021/06/10 10:16:23;;;;;;;4.70;3.20;;;;;;;;;;5044098;28;20928;-51
2021/06/10 10:18:50;;;;;;;4.70;3.40;;;;;;;;;;5042761;28;20964;-51
2021/06/10 10:21:16;;;;;;;3.17;2.87;;;;;;;;;;5037825;28;20523;-51
2021/06/10 10:23:42;;;;;;;4.27;3.07;;;;;;;;;;5033119;28;20942;-51
2021/06/10 10:26:08;;;;;;;3.30;3.00;;;;;;;;;;5033459;28;20406;-51
2021/06/10 10:28:36;;;;;;;4.50;2.73;;;;;;;;;;5035166;28;20406;-51
2021/06/10 10:31:06;;;;;;;4.00;2.97;;;;;;;;;;5033911;28;20407;-51
2021/06/10 10:33:32;;;;;;;3.40;2.67;;;;;;;;;;5034330;28;20410;-51
2021/06/10 10:39:02;;;;;;;3.80;3.20;;;;;;;;;;5009997;28;20693;-49
2021/06/10 10:41:28;;;;;;;4.90;3.73;;;;;;;;;;5011938;28;20423;-50
2021/06/10 10:44:20;;;;;;;3.20;3.00;;;;;;;;;;5003396;28;20467;-49
2021/06/10 10:46:56;;;;;;;3.50;3.20;;;;;;;;;;4990919;28;20443;-50
2021/06/10 10:49:22;;;;;;;3.77;3.57;;;;;;;;;;4988550;28;20466;-51
2021/06/10 10:51:48;;;;;;;3.70;3.40;;;;;;;;;;5019869;23;20870;-49
2021/06/10 10:54:49;;;;;;;4.97;3.37;;;;;;;;;;4989266;28;20411;-49
2021/06/10 10:57:38;;;;;;;4.97;3.20;;;;;;;;;;4957022;28;20483;-50
2021/06/10 11:00:05;;;;;;;5.23;3.70;;;;;;;;;;4989534;28;20923;-51
2021/06/10 11:02:32;;;;;;;5.13;3.60;;;;;;;;;;4989419;28;20451;-48
2021/06/10 11:05:05;;;;;;;5.70;3.00;;;;;;;;;;4991568;28;20436;-50
2021/06/10 11:07:34;;;;;;;4.30;3.90;;;;;;;;;;4990912;28;20411;-49
2021/06/10 11:10:00;;;;;;;4.30;3.00;;;;;;;;;;4991696;28;20404;-53
2021/06/10 11:12:42;;;;;;;3.40;3.20;;;;;;;;;;4990994;28;20424;-50
2021/06/10 11:15:22;;;;;;;3.60;3.33;;;;;;;;;;4991344;28;20411;-48
2021/06/10 11:17:50;;;;;;;4.40;3.30;;;;;;;;;;4991163;28;20480;-51
2021/06/10 11:20:17;;;;;;;2.60;2.40;;;;;;;;;;4991484;28;20404;-53
2021/06/10 11:22:44;;;;;;;4.53;2.80;;;;;;;;;;4991144;28;20404;-49
2021/06/10 11:25:13;;;;;;;2.63;2.43;;;;;;;;;;4991198;28;20775;-52
2021/06/10 11:27:40;;;;;;;2.40;2.20;;;;;;;;;;4991024;28;20415;-52
2021/06/10 11:30:10;;;;;;;4.07;2.70;;;;;;;;;;4991247;28;20412;-49
2021/06/10 11:32:55;;;;;;;3.23;2.80;;;;;;;;;;4992764;28;20430;-51
2021/06/10 11:35:33;;;;;;;3.43;3.07;;;;;;;;;;4994862;28;20786;-50
2021/06/10 11:38:00;;;;;;;2.60;2.50;;;;;;;;;;4994508;28;20459;-50
2021/06/10 11:40:26;;;;;;;2.70;2.50;;;;;;;;;;4994550;28;20404;-49
2021/06/10 11:42:53;;;;;;;3.00;2.87;;;;;;;;;;4994609;28;20408;-49
2021/06/10 11:45:20;;;;;;;4.43;4.00;;;;;;;;;;4994578;28;20694;-49
2021/06/10 11:47:46;;;;;;;2.90;2.73;;;;;;;;;;4994281;28;20408;-50
2021/06/10 11:50:42;;;;;;;2.83;2.57;;;;;;;;;;4994410;28;20403;-50
2021/06/10 11:53:18;;;;;;;3.07;2.80;;;;;;;;;;4978186;28;20434;-49
2021/06/10 11:55:44;;;;;;;7.07;3.10;;;;;;;;;;4994373;28;20399;-50
2021/06/10 11:58:11;;;;;;;3.80;3.20;;;;;;;;;;4993878;28;20517;-50
2021/06/10 12:00:42;;;;;;;4.67;3.20;;;;;;;;;;4994244;28;20762;-50
2021/06/10 12:03:10;;;;;;;3.33;3.03;;;;;;;;;;4994378;28;20407;-50
2021/06/10 12:05:44;;;;;;;5.13;2.83;;;;;;;;;;4994232;28;20432;-51
2021/06/10 12:08:14;;;;;;;4.00;3.47;;;;;;;;;;4994118;28;20434;-50
2021/06/10 12:10:46;;;;;;;3.03;2.80;;;;;;;;;;4993791;28;20432;-49
2021/06/10 12:13:12;;;;;;;5.40;2.80;;;;;;;;;;4994014;28;20895;-50
2021/06/10 12:15:44;;;;;;;3.23;2.90;;;;;;;;;;4993983;28;20491;-51
2021/06/10 12:18:11;;;;;;;3.37;3.10;;;;;;;;;;4993695;28;20498;-51
2021/06/10 12:20:38;;;;;;;2.90;2.70;;;;;;;;;;4993761;28;20454;-50
2021/06/10 12:23:10;;;;;;;4.00;3.30;;;;;;;;;;4993215;28;20419;-50
2021/06/10 12:25:36;;;;;;;3.57;3.37;;;;;;;;;;4993413;28;20892;-50
2021/06/10 12:28:02;;;;;;;9.23;3.87;;;;;;;;;;4992726;28;20417;-50
2021/06/10 12:30:37;;;;;;;7.10;3.63;;;;;;;;;;4993813;28;20983;-50
2021/06/10 12:33:19;;;;;;;3.73;3.43;;;;;;;;;;4994070;28;20412;-51
2021/06/10 12:35:55;;;;;;;6.43;3.60;;;;;;;;;;4993464;28;20461;-50
2021/06/10 12:38:26;;;;;;;4.10;3.73;;;;;;;;;;4993526;28;20935;-51
2021/06/10 12:40:52;;;;;;;5.30;3.83;;;;;;;;;;4993709;28;20855;-49
2021/06/10 12:43:21;;;;;;;3.87;3.57;;;;;;;;;;4992761;28;20922;-49
2021/06/10 12:45:48;;;;;;;4.47;3.63;;;;;;;;;;4993530;28;20396;-49
2021/06/10 12:48:20;;;;;;;3.93;3.50;;;;;;;;;;4993062;28;20550;-51
2021/06/10 12:50:46;;;;;;;4.93;3.80;;;;;;;;;;4993456;28;20428;-51
2021/06/10 12:53:16;;;;;;;3.77;3.33;;;;;;;;;;4993292;28;20954;-49
2021/06/10 12:55:42;;;;;;;3.90;3.70;;;;;;;;;;4993328;28;20895;-50
2021/06/10 12:58:08;;;;;;;4.87;3.70;;;;;;;;;;4990481;28;21188;-49
2021/06/10 13:00:35;;;;;;;3.67;3.37;;;;;;;;;;4984558;28;20404;-50
2021/06/10 13:03:04;;;;;;;4.47;4.17;;;;;;;;;;4976164;28;20548;-49
2021/06/10 13:05:30;;;;;;;5.80;5.30;;;;;;;;;;4990925;28;20543;-49
2021/06/10 13:07:57;;;;;;;4.93;3.83;;;;;;;;;;4992920;28;20503;-49
2021/06/10 13:10:32;;;;;;;4.13;3.73;;;;;;;;;;4993161;28;20407;-50
2021/06/10 13:12:58;;;;;;;4.47;3.57;;;;;;;;;;4990473;28;20776;-49
2021/06/10 13:15:24;;;;;;;6.00;4.10;;;;;;;;;;4983134;28;20765;-49
2021/06/10 13:17:52;;;;;;;5.57;4.13;;;;;;;;;;4975504;28;20994;-49
2021/06/10 13:20:37;;;;;;;4.17;3.87;;;;;;;;;;4973569;28;20225;-49
2021/06/10 13:23:02;;;;;;;4.40;3.43;;;;;;;;;;4973387;28;20404;-49
2021/06/10 13:25:28;;;;;;;6.50;3.90;;;;;;;;;;4973503;28;20405;-49
2021/06/10 13:28:11;;;;;;;4.83;4.43;;;;;;;;;;4973233;28;20475;-49
2021/06/10 13:30:37;;;;;;;6.37;3.90;;;;;;;;;;4973417;28;20432;-48
2021/06/10 13:33:04;;;;;;;4.77;4.37;;;;;;;;;;4985928;28;20419;-51
2021/06/10 13:35:38;;;;;;;8.33;4.17;;;;;;;;;;4975796;28;20492;-49
2021/06/10 13:38:05;;;;;;;3.60;3.40;;;;;;;;;;4987900;28;20485;-49
2021/06/10 13:40:31;;;;;;;3.33;3.13;;;;;;;;;;4984342;28;20428;-49
2021/06/10 13:42:57;;;;;;;3.93;3.53;;;;;;;;;;4984694;28;20459;-49
2021/06/10 13:45:23;;;;;;;3.50;3.20;;;;;;;;;;4984798;28;20463;-49
2021/06/10 13:47:49;;;;;;;7.93;4.67;;;;;;;;;;4981035;28;20849;-49
2021/06/10 13:50:15;;;;;;;4.97;3.73;;;;;;;;;;4985410;28;20824;-50
2021/06/10 13:52:41;;;;;;;3.63;3.43;;;;;;;;;;5007562;28;20482;-49
2021/06/10 13:55:07;;;;;;;4.40;4.00;;;;;;;;;;4994798;28;20766;-49
2021/06/10 13:57:33;;;;;;;4.83;4.43;;;;;;;;;;5005521;28;20962;-49
2021/06/10 14:00:00;;;;;;;3.90;3.60;;;;;;;;;;5000867;28;20457;-49
2021/06/10 14:02:27;;;;;;;4.37;4.00;;;;;;;;;;4998784;28;20431;-50
2021/06/10 14:04:53;;;;;;;3.33;3.13;;;;;;;;;;4998580;28;20415;-49
2021/06/10 14:07:19;;;;;;;4.50;4.20;;;;;;;;;;4998446;28;20407;-49
2021/06/10 14:09:45;;;;;;;3.77;3.57;;;;;;;;;;5007356;28;20411;-50
2021/06/10 14:12:11;;;;;;;4.00;3.60;;;;;;;;;;5009857;28;20485;-50
2021/06/10 14:14:38;;;;;;;3.87;3.57;;;;;;;;;;5009426;28;20416;-50
2021/06/10 14:17:05;;;;;;;4.90;3.40;;;;;;;;;;5009260;28;20500;-51
2021/06/10 14:19:31;;;;;;;4.20;3.90;;;;;;;;;;5010748;28;20400;-50
2021/06/10 14:21:56;;;;;;;4.07;3.67;;;;;;;;;;5011164;28;20430;-50
2021/06/10 14:24:22;;;;;;;4.53;3.80;;;;;;;;;;5009385;28;20426;-51
2021/06/10 14:26:49;;;;;;;4.70;4.00;;;;;;;;;;5009223;28;20482;-49
2021/06/10 14:34:37;;;;;;;6.03;3.90;;;;;;;;;;5009924;28;20494;-50
2021/06/10 14:37:03;;;;;;;5.17;4.70;;;;;;;;;;5009389;28;20962;-50
2021/06/10 14:39:29;;;;;;;5.33;3.90;;;;;;;;;;5010864;28;20937;-50
2021/06/10 14:41:56;;;;;;;4.93;4.43;;;;;;;;;;5010888;28;20415;-50